createdAt,value
2022-12-15T00:02:17.173Z,101238.59
2022-12-15T00:05:02.281Z,101239.56
2022-12-15T00:07:47.604Z,101243.03
2022-12-15T00:10:34.520Z,101245.72
2022-12-15T00:13:19.570Z,101243.09
2022-12-15T00:16:05.829Z,101223.78
2022-12-15T00:18:50.938Z,101246.53
2022-12-15T00:21:36.562Z,101243.09
2022-12-15T00:24:21.798Z,101256.91
2022-12-15T00:27:06.553Z,101250.78
2022-12-15T00:29:51.496Z,101238.56
2022-12-15T00:32:36.541Z,101256.03
2022-12-15T00:35:21.704Z,101249.00
2022-12-15T00:38:07.891Z,101254.13
2022-12-15T00:40:35.057Z,101255.94
2022-12-15T00:43:01.695Z,101231.53
2022-12-15T00:45:48.326Z,101237.00
2022-12-15T00:48:14.991Z,101248.19
2022-12-15T00:50:54.573Z,101242.19
2022-12-15T00:53:40.845Z,101251.69
2022-12-15T00:56:26.827Z,101254.31
2022-12-15T00:59:12.186Z,101256.13
2022-12-15T01:01:57.472Z,101253.59
2022-12-15T01:04:42.531Z,101255.38
2022-12-15T01:07:27.915Z,101264.88
2022-12-15T01:10:13.093Z,101255.41
2022-12-15T01:12:58.610Z,101233.44
2022-12-15T01:15:43.816Z,101265.84
2022-12-15T01:18:28.976Z,101266.66
2022-12-15T01:21:00.275Z,101226.44
2022-12-15T01:23:27.777Z,101268.50
2022-12-15T01:25:55.881Z,101259.97
2022-12-15T01:28:22.999Z,101239.72
2022-12-15T01:30:49.852Z,101267.69
2022-12-15T01:33:18.465Z,101270.38
2022-12-15T01:35:45.430Z,101268.50
2022-12-15T01:38:12.025Z,101268.47
2022-12-15T01:40:50.242Z,101262.34
2022-12-15T01:43:22.828Z,101253.31
2022-12-15T01:45:57.513Z,101271.88
2022-12-15T01:48:29.688Z,101272.63
2022-12-15T01:51:04.262Z,101277.84
2022-12-15T01:53:36.003Z,101288.25
2022-12-15T01:56:05.972Z,101262.97
2022-12-15T01:58:32.999Z,101287.44
2022-12-15T02:01:02.296Z,101288.00
2022-12-15T02:03:30.425Z,101291.78
2022-12-15T02:06:00.794Z,101302.09
2022-12-15T02:08:28.022Z,101289.06
2022-12-15T02:10:56.206Z,101303.97
2022-12-15T02:13:35.289Z,101294.38
2022-12-15T02:16:12.300Z,101311.72
2022-12-15T02:18:52.099Z,101303.09
2022-12-15T02:21:27.182Z,101312.63
2022-12-15T02:24:15.347Z,101322.13
2022-12-15T02:27:13.661Z,101314.44
2022-12-15T02:29:46.175Z,101322.19
2022-12-15T02:32:21.015Z,101309.19
2022-12-15T02:35:02.014Z,101319.75
2022-12-15T02:37:37.734Z,101313.66
2022-12-15T02:40:07.590Z,101317.97
2022-12-15T02:42:37.171Z,101324.03
2022-12-15T02:45:09.506Z,101323.94
2022-12-15T19:52:58.323Z,101705.22
2022-12-15T19:55:33.852Z,101695.28
2022-12-15T19:58:11.605Z,101693.88
2022-12-15T20:00:39.607Z,101686.50
2022-12-15T20:03:06.344Z,101690.16
2022-12-15T20:05:33.162Z,101688.50
2022-12-15T20:08:00.120Z,101648.28
2022-12-15T20:10:32.297Z,101670.81
2022-12-15T20:13:00.911Z,101646.31
2022-12-15T20:15:28.136Z,101663.16
2022-12-15T20:17:58.117Z,101662.28
2022-12-15T20:20:27.741Z,101668.25
2022-12-15T20:22:56.655Z,101675.25
2022-12-15T20:25:37.371Z,101660.84
2022-12-15T20:28:10.258Z,101672.25
2022-12-15T20:30:37.991Z,101670.34
2022-12-15T20:33:05.317Z,101667.97
2022-12-15T20:35:34.679Z,101659.53
2022-12-15T20:38:06.202Z,101658.03
2022-12-15T20:40:33.070Z,101642.72
2022-12-15T20:42:59.683Z,101650.91
2022-12-15T20:45:28.033Z,101648.59
2022-12-15T20:47:56.063Z,101639.22
2022-12-15T20:50:39.068Z,101640.28
2022-12-15T20:53:22.316Z,101626.47
2022-12-15T20:55:51.049Z,101635.53
2022-12-15T20:58:18.493Z,101626.28
2022-12-15T21:00:46.098Z,101611.50
2022-12-15T21:03:29.982Z,101613.53
2022-12-15T21:05:58.777Z,101599.84
2022-12-15T21:08:28.020Z,101603.16
2022-12-15T21:10:59.910Z,101596.53
2022-12-15T21:13:30.327Z,101587.28
2022-12-15T21:15:57.270Z,101584.84
2022-12-15T21:21:18.794Z,101583.72
2022-12-15T21:23:46.558Z,101578.75
2022-12-15T21:26:18.427Z,101546.44
2022-12-15T21:28:45.098Z,101571.44
2022-12-15T21:31:12.180Z,101561.22
2022-12-15T21:33:38.774Z,101557.91
2022-12-15T21:36:05.666Z,101557.22
2022-12-15T21:38:37.725Z,101547.81
2022-12-15T21:41:07.397Z,101541.75
2022-12-15T21:43:35.872Z,101517.97
2022-12-15T21:46:10.448Z,101533.19
2022-12-15T21:48:55.515Z,101545.56
2022-12-15T21:51:23.797Z,101534.50
2022-12-15T21:53:51.139Z,101529.38
2022-12-15T21:56:20.313Z,101521.41
2022-12-15T21:58:54.791Z,101519.06
2022-12-15T22:01:30.558Z,101524.47
2022-12-15T22:04:02.870Z,101504.63
2022-12-15T22:06:30.773Z,101512.44
2022-12-15T22:08:58.763Z,101506.28
2022-12-15T22:11:28.350Z,101499.38
2022-12-15T22:13:57.072Z,101500.47
2022-12-15T22:16:23.970Z,101494.38
2022-12-15T22:18:54.967Z,101500.59
2022-12-15T22:21:22.208Z,101490.22
2022-12-15T22:23:48.818Z,101489.25
2022-12-15T22:26:34.317Z,101479.72
2022-12-15T22:29:02.023Z,101465.72
2022-12-15T22:31:29.441Z,101476.16
2022-12-15T22:33:56.084Z,101461.59
2022-12-15T22:36:22.650Z,101459.25
2022-12-15T22:38:49.225Z,101454.88
2022-12-15T22:41:23.220Z,101454.09
2022-12-15T22:43:55.172Z,101438.28
2022-12-15T22:46:24.334Z,101445.47
2022-12-15T22:48:52.889Z,101435.94
2022-12-15T22:51:21.726Z,101433.34
2022-12-15T22:53:49.145Z,101428.25
2022-12-15T22:56:21.094Z,101428.31
2022-12-15T22:58:50.142Z,101417.81
2022-12-15T23:01:19.154Z,101413.47
2022-12-15T23:03:45.801Z,101409.09
2022-12-15T23:06:12.590Z,101414.91
2022-12-15T23:08:39.116Z,101388.72
2022-12-15T23:11:24.247Z,101400.00
2022-12-15T23:13:50.782Z,101396.63
2022-12-15T23:16:21.619Z,101394.16
2022-12-15T23:18:53.666Z,101389.69
2022-12-15T23:21:22.568Z,101392.13
2022-12-15T23:23:49.504Z,101392.13
2022-12-15T23:26:19.278Z,101381.75
2022-12-15T23:28:46.283Z,101376.47
2022-12-15T23:31:13.027Z,101374.94
2022-12-15T23:33:41.794Z,101367.31
2022-12-15T23:36:09.891Z,101373.31
2022-12-15T23:38:36.519Z,101354.19
2022-12-15T23:41:03.217Z,101355.19
2022-12-15T23:43:32.842Z,101362.84
2022-12-15T23:46:03.171Z,101353.34
2022-12-15T23:48:32.289Z,101354.31
2022-12-15T23:51:24.445Z,101359.41
2022-12-15T23:53:52.331Z,101351.56
2022-12-15T23:56:24.113Z,101339.50
2022-12-15T23:58:56.600Z,101342.22
